No particular awareness of the weather is required.    There are no Weather-warnings


Meteo18 Weather Cam more information Meteo18 Weather Cam


Thunder radar more information blitzortung!


Rain radar more information rain snow radar


Visit our other weather sites:

Template documentation
and downloads

And another site



Weather Underground History page Text

Daily Summary for February 8, 2018 Units:  English    Metric   Both
« Previous Day
Next Day »
Daily Weekly Monthly Yearly Custom
  High: Low: Average:
Temperature: TemperatureC °F -3.7 °F -1.6 °F
Dew Point: DewpointC °F -4.6 °F -2.8 °F
Humidity: Humidity % 87 % 91 %
Wind Speed: WindSpeedKMH mph 0.0 mph 1.8 mph
Wind Gust: WindSpeedGustKMH mph - -
Wind:- - SSE
Pressure: PressurehPa in 1019.2 in -
Precipitation: 0.0 in    
Historical Graphs
 
 
Tabular Data for February 8, 2018
Time Temperature Dew Point Pressure Wind Wind Speed Wind Gust Humidity Rainfall Rate (Hourly)
TemperatureC °F DewpointC °F PressurehPa in Calm     Humidity % HourlyPrecipMM in
00:02 -1.6 °F -2.4 °F 1019.2 in North 4.7 mph 9.7 mph 94 % 0.0 in
00:08 -1.6 °F -2.4 °F 1019.2 in North 3.2 mph 6.4 mph 94 % 0.0 in
00:14 -1.6 °F -2.4 °F 1019.5 in North 3.2 mph 6.4 mph 94 % 0.0 in
00:20 -1.6 °F -2.4 °F 1019.5 in Calm   1.6 mph 94 % 0.0 in
00:26 -1.6 °F -2.4 °F 1019.5 in Calm   1.6 mph 94 % 0.0 in
00:32 -1.6 °F -2.4 °F 1019.2 in Calm   3.2 mph 94 % 0.0 in
00:38 -1.6 °F -2.4 °F 1019.2 in North 1.4 mph 4.8 mph 94 % 0.0 in
00:44 -1.7 °F -2.5 °F 1019.2 in North 1.4 mph 4.8 mph 94 % 0.0 in
00:50 -1.7 °F -2.5 °F 1019.2 in North 7.9 mph 9.7 mph 94 % 0.0 in
00:56 -1.7 °F -2.5 °F 1019.2 in North 3.2 mph 3.2 mph 94 % 0.0 in
01:02 -1.7 °F -2.5 °F 1019.2 in North 1.4 mph 3.2 mph 94 % 0.0 in
01:08 -1.7 °F -2.5 °F 1019.2 in North 1.4 mph 1.6 mph 94 % 0.0 in
01:14 -1.7 °F -2.5 °F 1019.5 in North 3.2 mph 4.8 mph 94 % 0.0 in
01:20 -1.7 °F -2.5 °F 1019.2 in North 4.7 mph 6.4 mph 94 % 0.0 in
01:26 -1.8 °F -2.6 °F 1019.5 in North 6.4 mph 12.9 mph 94 % 0.0 in
01:32 -1.8 °F -2.6 °F 1019.5 in North 4.7 mph 8.0 mph 94 % 0.0 in
01:38 -1.8 °F -2.6 °F 1019.5 in NW 6.4 mph 9.7 mph 94 % 0.0 in
01:44 -1.8 °F -2.6 °F 1019.5 in NNW 4.7 mph 8.0 mph 94 % 0.0 in
01:50 -1.8 °F -2.6 °F 1019.5 in NW 1.4 mph 6.4 mph 94 % 0.0 in
01:56 -1.8 °F -2.6 °F 1019.5 in NW 1.4 mph 8.0 mph 94 % 0.0 in
02:02 -1.9 °F -2.7 °F 1019.5 in Calm   4.8 mph 94 % 0.0 in
02:08 -1.9 °F -2.7 °F 1019.5 in NNW 1.4 mph 8.0 mph 94 % 0.0 in
02:14 -1.9 °F -2.7 °F 1019.5 in NNW 3.2 mph 6.4 mph 94 % 0.0 in
02:20 -1.9 °F -2.9 °F 1019.5 in NW 7.9 mph 11.3 mph 93 % 0.0 in
02:26 -1.9 °F -2.9 °F 1019.5 in Calm   6.4 mph 93 % 0.0 in
02:32 -1.9 °F -2.9 °F 1019.5 in North 7.9 mph 8.0 mph 93 % 0.0 in
02:38 -1.9 °F -2.9 °F 1019.5 in NNW 6.4 mph 9.7 mph 93 % 0.0 in
02:44 -1.9 °F -2.9 °F 1019.5 in NNW 1.4 mph 6.4 mph 93 % 0.0 in
02:50 -1.9 °F -2.9 °F 1019.5 in North 3.2 mph 9.7 mph 93 % 0.0 in
02:56 -1.9 °F -2.9 °F 1019.5 in NNE 13.0 mph 14.5 mph 93 % 0.0 in
03:02 -2.0 °F -3.0 °F 1019.5 in NNE 6.4 mph 11.3 mph 93 % 0.0 in
03:08 -2.0 °F -3.1 °F 1019.5 in North 7.9 mph 14.5 mph 92 % 0.0 in
03:14 -2.1 °F -3.2 °F 1019.5 in NW 3.2 mph 11.3 mph 92 % 0.0 in
03:20 -2.1 °F -3.2 °F 1019.5 in North 6.4 mph 12.9 mph 92 % 0.0 in
03:26 -2.1 °F -3.2 °F 1019.5 in NW 4.7 mph 8.0 mph 92 % 0.0 in
03:32 -2.1 °F -3.2 °F 1019.5 in NNW 4.7 mph 6.4 mph 92 % 0.0 in
03:38 -2.1 °F -3.2 °F 1019.5 in NW 1.4 mph 6.4 mph 92 % 0.0 in
03:44 -2.2 °F -3.5 °F 1019.5 in NW 3.2 mph 9.7 mph 91 % 0.0 in
03:50 -2.2 °F -3.5 °F 1019.2 in NNW 3.2 mph 8.0 mph 91 % 0.0 in
03:56 -2.3 °F -3.6 °F 1019.5 in NW 1.4 mph 8.0 mph 91 % 0.0 in
04:02 -2.3 °F -3.6 °F 1019.5 in Calm   4.8 mph 91 % 0.0 in
04:08 -2.4 °F -3.5 °F 1019.5 in North 3.2 mph 4.8 mph 92 % 0.0 in
04:14 -2.5 °F -3.6 °F 1019.5 in NNW 4.7 mph 4.8 mph 92 % 0.0 in
04:20 -2.6 °F -3.7 °F 1019.5 in WNW 1.4 mph 4.8 mph 92 % 0.0 in
04:26 -2.7 °F -3.8 °F 1019.5 in WNW 1.4 mph 4.8 mph 92 % 0.0 in
04:32 -2.8 °F -3.8 °F 1019.5 in NNW 1.4 mph 4.8 mph 93 % 0.0 in
04:38 -2.9 °F -3.9 °F 1019.2 in NNW 4.7 mph 6.4 mph 93 % 0.0 in
04:44 -2.9 °F -3.9 °F 1019.2 in Calm   6.4 mph 93 % 0.0 in
04:50 -2.9 °F -3.9 °F 1019.2 in WNW 3.2 mph 6.4 mph 93 % 0.0 in
04:56 -3.0 °F -4.0 °F 1019.2 in NW 1.4 mph 4.8 mph 93 % 0.0 in
05:02 -3.1 °F -4.1 °F 1019.2 in NNW 1.4 mph 4.8 mph 93 % 0.0 in
05:08 -3.2 °F -4.2 °F 1019.2 in WNW 1.4 mph 3.2 mph 93 % 0.0 in
05:14 -3.3 °F -4.3 °F 1019.5 in WNW 1.4 mph 3.2 mph 93 % 0.0 in
05:21 -3.4 °F -4.4 °F 1019.5 in NW 1.4 mph 1.6 mph 93 % 0.0 in
05:27 -3.4 °F -4.4 °F 1019.5 in Calm   3.2 mph 93 % 0.0 in
05:33 -3.4 °F -4.4 °F 1019.5 in NW 1.4 mph 4.8 mph 93 % 0.0 in
05:39 -3.5 °F -4.3 °F 1019.5 in Calm   4.8 mph 94 % 0.0 in
05:45 -3.6 °F -4.4 °F 1019.5 in Calm   6.4 mph 94 % 0.0 in
05:51 -3.6 °F -4.4 °F 1019.5 in NW 3.2 mph 4.8 mph 94 % 0.0 in
05:57 -3.6 °F -4.4 °F 1019.5 in Calm   6.4 mph 94 % 0.0 in
06:03 -3.7 °F -4.5 °F 1019.5 in NW 1.4 mph 6.4 mph 94 % 0.0 in
06:09 -3.6 °F -4.4 °F 1019.5 in Calm   6.4 mph 94 % 0.0 in
06:15 -3.6 °F -4.4 °F 1019.9 in NW 1.4 mph 4.8 mph 94 % 0.0 in
06:21 -3.6 °F -4.4 °F 1019.9 in Calm   3.2 mph 94 % 0.0 in
06:27 -3.7 °F -4.5 °F 1019.9 in Calm   4.8 mph 94 % 0.0 in
06:33 -3.7 °F -4.5 °F 1019.9 in WNW 3.2 mph 3.2 mph 94 % 0.0 in
06:39 -3.7 °F -4.5 °F 1019.9 in NNW 1.4 mph 3.2 mph 94 % 0.0 in
06:45 -3.7 °F -4.5 °F 1019.9 in Calm   6.4 mph 94 % 0.0 in
06:51 -3.7 °F -4.5 °F 1019.9 in NW 3.2 mph 6.4 mph 94 % 0.0 in
06:57 -3.6 °F -4.4 °F 1019.9 in NNW 1.4 mph 1.6 mph 94 % 0.0 in
07:03 -3.6 °F -4.4 °F 1019.9 in NNW 4.7 mph 8.0 mph 94 % 0.0 in
07:09 -3.6 °F -4.4 °F 1019.9 in NW 1.4 mph 4.8 mph 94 % 0.0 in
07:15 -3.6 °F -4.4 °F 1019.9 in NNW 3.2 mph 6.4 mph 94 % 0.0 in
07:21 -3.6 °F -4.6 °F 1019.9 in WNW 1.4 mph 3.2 mph 93 % 0.0 in
07:27 -3.6 °F -4.6 °F 1019.9 in NW 4.7 mph 4.8 mph 93 % 0.0 in
07:33 -3.5 °F -4.3 °F 1019.9 in NNW 1.4 mph 3.2 mph 94 % 0.0 in
07:39 -3.5 °F -4.3 °F 1020.2 in NNW 1.4 mph 3.2 mph 94 % 0.0 in
07:45 -3.4 °F -4.2 °F 1020.2 in Calm   1.6 mph 94 % 0.0 in
07:51 -3.4 °F -4.2 °F 1020.2 in Calm   1.6 mph 94 % 0.0 in
07:57 -3.4 °F -4.2 °F 1020.2 in North 1.4 mph 6.4 mph 94 % 0.0 in
08:03 -3.3 °F -4.1 °F 1020.5 in North 1.4 mph 8.0 mph 94 % 0.0 in
08:09 -3.3 °F -4.1 °F 1020.2 in NNE 1.4 mph 4.8 mph 94 % 0.0 in
08:15 -3.2 °F -4.0 °F 1020.5 in Calm   6.4 mph 94 % 0.0 in
08:21 -3.2 °F -4.0 °F 1020.5 in North 4.7 mph 4.8 mph 94 % 0.0 in
08:27 -3.1 °F -3.9 °F 1020.5 in NNW 3.2 mph 6.4 mph 94 % 0.0 in
08:33 -3.0 °F -3.8 °F 1020.5 in NNE 1.4 mph 6.4 mph 94 % 0.0 in
08:39 -2.9 °F -3.7 °F 1020.5 in NNE 1.4 mph 6.4 mph 94 % 0.0 in
08:45 -2.9 °F -3.7 °F 1020.5 in Calm   4.8 mph 94 % 0.0 in
08:51 -2.8 °F -3.6 °F 1020.5 in NNE 3.2 mph 4.8 mph 94 % 0.0 in
08:57 -2.8 °F -3.6 °F 1020.5 in NE 4.7 mph 4.8 mph 94 % 0.0 in
09:03 -2.8 °F -3.6 °F 1020.9 in NE 1.4 mph 3.2 mph 94 % 0.0 in
09:09 -2.8 °F -3.6 °F 1020.9 in North 1.4 mph 3.2 mph 94 % 0.0 in
09:15 -2.7 °F -3.5 °F 1020.9 in Calm   1.6 mph 94 % 0.0 in
09:21 -2.6 °F -3.4 °F 1020.9 in Calm   1.6 mph 94 % 0.0 in
09:27 -2.6 °F -3.4 °F 1020.9 in Calm   1.6 mph 94 % 0.0 in
09:33 -2.4 °F -3.2 °F 1020.9 in Calm   1.6 mph 94 % 0.0 in
09:40 -2.3 °F -3.1 °F 1021.2 in Calm     94 % 0.0 in
09:48 -2.2 °F -3.0 °F 1021.2 in Calm     94 % 0.0 in
09:54 -2.2 °F -3.0 °F 1021.2 in Calm   1.6 mph 94 % 0.0 in
10:00 -2.2 °F -3.0 °F 1021.2 in Calm   1.6 mph 94 % 0.0 in
10:06 -2.1 °F -2.9 °F 1021.2 in Calm   3.2 mph 94 % 0.0 in
10:12 -2.0 °F -2.8 °F 1021.2 in North 1.4 mph 3.2 mph 94 % 0.0 in
10:18 -1.9 °F -2.9 °F 1021.2 in NNW 1.4 mph 3.2 mph 93 % 0.0 in
10:24 -2.0 °F -3.0 °F 1021.2 in North 1.4 mph 3.2 mph 93 % 0.0 in
10:30 -2.1 °F -3.1 °F 1021.2 in NNW 3.2 mph 4.8 mph 93 % 0.0 in
10:36 -2.0 °F -3.1 °F 1021.2 in Calm   3.2 mph 92 % 0.0 in
10:42 -1.9 °F -3.0 °F 1021.2 in North 1.4 mph 4.8 mph 92 % 0.0 in
10:48 -1.8 °F -2.9 °F 1021.2 in NW 1.4 mph 3.2 mph 92 % 0.0 in
10:54 -1.8 °F -2.9 °F 1021.2 in Calm     92 % 0.0 in
11:00 -1.5 °F -2.6 °F 1021.6 in Calm   1.6 mph 92 % 0.0 in
11:06 -1.4 °F -2.7 °F 1021.2 in NE 1.4 mph 4.8 mph 91 % 0.0 in
11:12 -1.6 °F -2.9 °F 1021.2 in NE 3.2 mph 8.0 mph 91 % 0.0 in
11:18 -1.5 °F -2.8 °F 1021.2 in NE 4.7 mph 6.4 mph 91 % 0.0 in
11:24 -1.6 °F -2.9 °F 1021.2 in NE 6.4 mph 11.3 mph 91 % 0.0 in
11:30 -1.5 °F -2.8 °F 1021.6 in NW 3.2 mph 8.0 mph 91 % 0.0 in
11:36 -1.4 °F -2.7 °F 1021.6 in NNW 4.7 mph 8.0 mph 91 % 0.0 in
11:42 -1.4 °F -2.7 °F 1021.6 in North 4.7 mph 6.4 mph 91 % 0.0 in
11:48 -1.3 °F -2.6 °F 1021.6 in North 3.2 mph 4.8 mph 91 % 0.0 in
11:54 -1.2 °F -2.5 °F 1021.6 in NNE 3.2 mph 4.8 mph 91 % 0.0 in
12:00 -1.2 °F -2.6 °F 1021.6 in Calm   3.2 mph 90 % 0.0 in
12:06 -1.1 °F -2.5 °F 1021.6 in NNW 1.4 mph 3.2 mph 90 % 0.0 in
12:12 -1.0 °F -2.4 °F 1021.6 in North 1.4 mph 3.2 mph 90 % 0.0 in
12:18 -0.9 °F -2.5 °F 1021.6 in Calm   3.2 mph 89 % 0.0 in
12:24 -0.9 °F -2.5 °F 1021.6 in NNE 3.2 mph 6.4 mph 89 % 0.0 in
12:30 -0.8 °F -2.2 °F 1021.6 in NW 1.4 mph 4.8 mph 90 % 0.0 in
12:36 -0.8 °F -2.4 °F 1021.6 in NNW 1.4 mph 4.8 mph 89 % 0.0 in
12:42 -0.7 °F -2.3 °F 1021.6 in North 1.4 mph 4.8 mph 89 % 0.0 in
12:48 -0.8 °F -2.5 °F 1021.6 in NNW 1.4 mph 6.4 mph 88 % 0.0 in
12:54 -0.9 °F -2.5 °F 1021.6 in NNE 4.7 mph 8.0 mph 89 % 0.0 in
13:00 -0.9 °F -2.6 °F 1021.2 in NNW 3.2 mph 9.7 mph 88 % 0.0 in
13:06 -0.9 °F -2.5 °F 1021.2 in NNW 1.4 mph 4.8 mph 89 % 0.0 in
13:12 -0.8 °F -2.4 °F 1021.2 in Calm   6.4 mph 89 % 0.0 in
13:18 -0.9 °F -2.5 °F 1021.2 in ENE 6.4 mph 6.4 mph 89 % 0.0 in
13:24 -0.9 °F -2.5 °F 1021.2 in NE 1.4 mph 11.3 mph 89 % 0.0 in
13:30 -1.1 °F -2.8 °F 1021.2 in NNE 3.2 mph 12.9 mph 88 % 0.0 in
13:36 -1.1 °F -2.7 °F 1021.2 in NNW 1.4 mph 4.8 mph 89 % 0.0 in
13:42 -0.9 °F -2.3 °F 1021.2 in NE 3.2 mph 6.4 mph 90 % 0.0 in
13:48 -0.9 °F -2.5 °F 1021.2 in North 1.4 mph 4.8 mph 89 % 0.0 in
13:54 -1.0 °F -2.6 °F 1021.2 in North 1.4 mph 4.8 mph 89 % 0.0 in
14:00 -0.8 °F -2.4 °F 1021.2 in NNW 4.7 mph 4.8 mph 89 % 0.0 in
14:06 -0.9 °F -2.5 °F 1021.2 in Calm   4.8 mph 89 % 0.0 in
14:12 -0.7 °F -2.3 °F 1021.2 in Calm   1.6 mph 89 % 0.0 in
14:18 -0.6 °F -2.2 °F 1021.2 in NNE 1.4 mph 3.2 mph 89 % 0.0 in
14:24 -0.6 °F -2.3 °F 1020.9 in NW 1.4 mph 4.8 mph 88 % 0.0 in
14:30 -0.4 °F -2.0 °F 1020.9 in North 1.4 mph 3.2 mph 89 % 0.0 in
14:36 -0.5 °F -2.2 °F 1021.2 in North 1.4 mph 3.2 mph 88 % 0.0 in
14:42 -0.4 °F -2.0 °F 1021.2 in Calm     89 % 0.0 in
14:48 -0.3 °F -2.0 °F 1020.9 in Calm   1.6 mph 88 % 0.0 in
14:54 -0.2 °F -1.9 °F 1020.9 in Calm   1.6 mph 88 % 0.0 in
15:00 -0.3 °F -2.0 °F 1020.9 in Calm   3.2 mph 88 % 0.0 in
15:06 -0.3 °F -2.0 °F 1020.9 in WNW 1.4 mph 1.6 mph 88 % 0.0 in
15:12 -0.3 °F -2.2 °F 1020.9 in NNE 3.2 mph 3.2 mph 87 % 0.0 in
15:18 -0.3 °F -2.0 °F 1020.9 in Calm   1.6 mph 88 % 0.0 in
15:24 -0.3 °F -2.2 °F 1020.9 in Calm   1.6 mph 87 % 0.0 in
15:30 -0.3 °F -2.0 °F 1020.9 in Calm     88 % 0.0 in
15:37 -0.3 °F -2.0 °F 1021.2 in Calm   1.6 mph 88 % 0.0 in
15:43 -0.3 °F -2.0 °F 1021.2 in Calm   1.6 mph 88 % 0.0 in
15:49 -0.3 °F -2.0 °F 1021.2 in NNE 1.4 mph 1.6 mph 88 % 0.0 in
15:55 -0.4 °F -2.1 °F 1021.2 in Calm   1.6 mph 88 % 0.0 in
16:01 -0.4 °F -2.1 °F 1021.2 in Calm   1.6 mph 88 % 0.0 in
16:07 -0.4 °F -2.1 °F 1021.2 in Calm   1.6 mph 88 % 0.0 in
16:13 -0.4 °F -2.0 °F 1021.2 in NNE 1.4 mph 1.6 mph 89 % 0.0 in
16:19 -0.4 °F -2.0 °F 1021.2 in Calm     89 % 0.0 in
16:25 -0.5 °F -2.1 °F 1021.2 in NNE 1.4 mph 1.6 mph 89 % 0.0 in
16:31 -0.6 °F -2.3 °F 1021.2 in Calm     88 % 0.0 in
16:37 -0.6 °F -2.3 °F 1021.2 in Calm   1.6 mph 88 % 0.0 in
16:43 -0.6 °F -2.2 °F 1021.2 in Calm   1.6 mph 89 % 0.0 in
16:49 -0.6 °F -2.2 °F 1021.2 in Calm   1.6 mph 89 % 0.0 in
16:55 -0.6 °F -2.2 °F 1021.2 in Calm   1.6 mph 89 % 0.0 in
17:01 -0.6 °F -2.2 °F 1020.9 in Calm   1.6 mph 89 % 0.0 in
17:07 -0.7 °F -2.3 °F 1020.9 in Calm     89 % 0.0 in
17:13 -0.6 °F -2.2 °F 1021.2 in Calm     89 % 0.0 in
17:19 -0.6 °F -2.2 °F 1021.2 in Calm     89 % 0.0 in
17:25 -0.6 °F -2.2 °F 1021.2 in Calm     89 % 0.0 in
17:31 -0.7 °F -2.3 °F 1020.9 in Calm     89 % 0.0 in
17:38 -0.6 °F -2.2 °F 1020.9 in Calm     89 % 0.0 in
17:44 -0.7 °F -2.3 °F 1021.2 in Calm     89 % 0.0 in
17:50 -0.7 °F -2.3 °F 1021.2 in Calm     89 % 0.0 in
17:56 -0.7 °F -2.3 °F 1021.2 in Calm     89 % 0.0 in
18:02 -0.7 °F -2.3 °F 1021.2 in Calm     89 % 0.0 in
18:08 -0.8 °F -2.4 °F 1021.2 in Calm     89 % 0.0 in
18:14 -0.8 °F -2.2 °F 1021.2 in Calm     90 % 0.0 in
18:20 -0.8 °F -2.2 °F 1021.2 in Calm     90 % 0.0 in
18:26 -0.8 °F -2.2 °F 1021.2 in Calm     90 % 0.0 in
18:32 -0.8 °F -2.2 °F 1021.2 in Calm     90 % 0.0 in
18:38 -0.8 °F -2.2 °F 1021.2 in Calm     90 % 0.0 in
18:44 -0.8 °F -2.1 °F 1021.2 in Calm     91 % 0.0 in
18:50 -0.8 °F -2.1 °F 1021.2 in Calm     91 % 0.0 in
18:56 -0.8 °F -2.1 °F 1021.2 in NNE 1.4 mph 1.6 mph 91 % 0.0 in
19:02 -0.8 °F -2.1 °F 1021.2 in Calm   1.6 mph 91 % 0.0 in
19:08 -0.8 °F -2.1 °F 1021.2 in Calm     91 % 0.0 in
19:14 -0.8 °F -1.9 °F 1021.2 in Calm   1.6 mph 92 % 0.0 in
19:21 -0.8 °F -1.9 °F 1021.2 in Calm   1.6 mph 92 % 0.0 in
19:27 -0.8 °F -1.9 °F 1021.2 in NNE 1.4 mph 1.6 mph 92 % 0.0 in
19:33 -0.8 °F -1.9 °F 1021.2 in Calm   1.6 mph 92 % 0.0 in
19:39 -0.8 °F -1.9 °F 1021.2 in NNE 1.4 mph 1.6 mph 92 % 0.0 in
19:45 -0.8 °F -1.9 °F 1021.2 in Calm   1.6 mph 92 % 0.0 in
19:51 -0.8 °F -1.9 °F 1021.2 in Calm   3.2 mph 92 % 0.0 in
19:57 -0.8 °F -1.9 °F 1020.9 in NNE 4.7 mph 4.8 mph 92 % 0.0 in
20:03 -0.8 °F -1.9 °F 1021.2 in NNE 1.4 mph 4.8 mph 92 % 0.0 in
20:09 -0.8 °F -1.9 °F 1021.2 in Calm   3.2 mph 92 % 0.0 in
20:15 -0.8 °F -1.8 °F 1021.2 in NNE 1.4 mph 1.6 mph 93 % 0.0 in
20:21 -0.8 °F -1.8 °F 1021.2 in Calm   3.2 mph 93 % 0.0 in
20:27 -0.8 °F -1.9 °F 1021.2 in Calm   1.6 mph 92 % 0.0 in
20:33 -0.8 °F -2.1 °F 1021.2 in Calm   3.2 mph 91 % 0.0 in
20:39 -0.7 °F -1.8 °F 1021.2 in NNE 3.2 mph 4.8 mph 92 % 0.0 in
20:45 -0.8 °F -2.2 °F 1020.9 in Calm   1.6 mph 90 % 0.0 in
20:51 -0.7 °F -2.0 °F 1020.9 in NNE 1.4 mph 1.6 mph 91 % 0.0 in
20:57 -0.7 °F -2.0 °F 1020.9 in Calm   1.6 mph 91 % 0.0 in
21:03 -0.8 °F -1.9 °F 1021.2 in NNE 1.4 mph 1.6 mph 92 % 0.0 in
21:09 -0.8 °F -2.1 °F 1021.2 in NNE 1.4 mph 3.2 mph 91 % 0.0 in
21:15 -0.8 °F -2.1 °F 1021.2 in Calm   3.2 mph 91 % 0.0 in
21:21 -0.8 °F -2.1 °F 1021.2 in NNE 1.4 mph 1.6 mph 91 % 0.0 in
21:27 -0.8 °F -2.1 °F 1021.2 in Calm   1.6 mph 91 % 0.0 in
21:33 -0.8 °F -2.1 °F 1021.2 in NNE 1.4 mph 3.2 mph 91 % 0.0 in
21:39 -0.8 °F -2.2 °F 1021.2 in NNE 1.4 mph 9.7 mph 90 % 0.0 in
21:45 -0.8 °F -2.4 °F 1021.2 in NNE 4.7 mph 8.0 mph 89 % 0.0 in
21:51 -0.7 °F -2.4 °F 1021.2 in NNE 1.4 mph 4.8 mph 88 % 0.0 in
21:57 -0.7 °F -2.4 °F 1020.9 in NNE 4.7 mph 11.3 mph 88 % 0.0 in
22:03 -0.7 °F -2.4 °F 1020.9 in NNE 4.7 mph 6.4 mph 88 % 0.0 in
22:09 -0.7 °F -2.3 °F 1020.9 in NNE 3.2 mph 8.0 mph 89 % 0.0 in
22:15 -0.7 °F -2.1 °F 1020.5 in NNE 4.7 mph 6.4 mph 90 % 0.0 in
22:22 -0.7 °F -2.3 °F 1020.5 in Calm   4.8 mph 89 % 0.0 in
22:27 -0.7 °F -2.1 °F 1020.5 in NNE 1.4 mph 3.2 mph 90 % 0.0 in
22:33 -0.7 °F -2.1 °F 1020.5 in NNE 3.2 mph 4.8 mph 90 % 0.0 in
22:39 -0.8 °F -2.4 °F 1020.5 in Calm   6.4 mph 89 % 0.0 in
22:45 -0.8 °F -2.2 °F 1020.5 in NNE 1.4 mph 6.4 mph 90 % 0.0 in
22:51 -0.8 °F -2.1 °F 1020.5 in NNE 3.2 mph 4.8 mph 91 % 0.0 in
22:57 -0.8 °F -2.2 °F 1020.5 in NNE 3.2 mph 8.0 mph 90 % 0.0 in
23:03 -0.8 °F -2.2 °F 1020.2 in NNE 1.4 mph 9.7 mph 90 % 0.0 in
23:09 -0.9 °F -2.6 °F 1020.2 in NNE 1.4 mph 9.7 mph 88 % 0.0 in
23:15 -0.9 °F -2.6 °F 1019.9 in NNE 4.7 mph 8.0 mph 88 % 0.0 in
23:21 -0.9 °F -2.6 °F 1020.2 in Calm   6.4 mph 88 % 0.0 in
23:27 -0.9 °F -2.6 °F 1020.2 in NNE 4.7 mph 9.7 mph 88 % 0.0 in
23:33 -0.8 °F -2.5 °F 1019.9 in NNE 1.4 mph 8.0 mph 88 % 0.0 in
23:39 -0.9 °F -2.8 °F 1019.9 in NNE 4.7 mph 6.4 mph 87 % 0.0 in
23:45 -0.8 °F -2.7 °F 1019.9 in NNE 4.7 mph 9.7 mph 87 % 0.0 in
23:51 -0.8 °F -2.5 °F 1019.9 in NNE 7.9 mph 9.7 mph 88 % 0.0 in
23:57 -0.8 °F -2.5 °F 1019.9 in Calm   9.7 mph 88 % 0.0 in
Meteo18
Compliments of Weather Underground - 4 mb

Script developed by  Jim McMurry - jmcmurry@mwt.net Adapted for the template by  Wim van der Kuil - Leuven-Template.eu

You find our weather info also at:

European Weather Network

Weather Underground

Equipment we use:

Weather-station
Davis Vue

Weather-program
Meteobridge

Weather-server
Raspberry PI 2 B+

Provider
1 and 1

Davis Vue

Meteobridge

Raspberry PI 2 B+

1 and 1